Jackson, Missouri
Current Conditions -  °F | °C
As of 12:07 AM on Tuesday 21 Oct 2014 (Local Time) from KCGI Reporting Station
Clear Clear  
Wind Chill:   Ceiling: Unl
Heat Index:   Visibility: 8mi
Dew Point:   Wind: 0mph
Humidity: 93%   Direction: NA
Pressure: 30.02"   Gusts: NA
Location:  37.38°N, 89.67°W
Report Text: KCGI 210507Z AUTO 00000KT 8SM CLR 09/08 A3002 RMK AO2 TSNO $
Loading
Personal Weather Stations






























Interactive Weather Map New forecast layout! Learn more

10-Day Weather Forecast

Advertisements
Track Severe Weather on mobile